sensor_id;sensor_type;location;lat;lon;timestamp;temperature;humidity
41668;DHT22;27356;50.920;5.350;2022-08-24T00:02:21;21.60;99.90
41668;DHT22;27356;50.920;5.350;2022-08-24T00:04:48;21.50;99.90
41668;DHT22;27356;50.920;5.350;2022-08-24T00:07:14;21.50;99.90
41668;DHT22;27356;50.920;5.350;2022-08-24T00:09:40;21.50;99.90
41668;DHT22;27356;50.920;5.350;2022-08-24T00:12:06;21.40;99.90
41668;DHT22;27356;50.920;5.350;2022-08-24T00:14:32;21.40;99.90
41668;DHT22;27356;50.920;5.350;2022-08-24T00:16:57;21.30;99.90
41668;DHT22;27356;50.920;5.350;2022-08-24T00:19:23;21.30;99.90
41668;DHT22;27356;50.920;5.350;2022-08-24T00:21:49;21.30;99.90
41668;DHT22;27356;50.920;5.350;2022-08-24T00:24:16;21.30;99.90
41668;DHT22;27356;50.920;5.350;2022-08-24T00:26:42;21.30;99.90
41668;DHT22;27356;50.920;5.350;2022-08-24T00:29:08;21.20;99.90
41668;DHT22;27356;50.920;5.350;2022-08-24T00:31:34;21.10;99.90
41668;DHT22;27356;50.920;5.350;2022-08-24T00:33:59;21.10;99.90
41668;DHT22;27356;50.920;5.350;2022-08-24T00:36:25;21.10;99.90
41668;DHT22;27356;50.920;5.350;2022-08-24T00:38:50;21.10;99.90
41668;DHT22;27356;50.920;5.350;2022-08-24T00:41:16;21.00;99.90
41668;DHT22;27356;50.920;5.350;2022-08-24T00:44:03;21.00;99.90
41668;DHT22;27356;50.920;5.350;2022-08-24T00:46:36;21.00;99.90
41668;DHT22;27356;50.920;5.350;2022-08-24T00:49:05;20.90;99.90
41668;DHT22;27356;50.920;5.350;2022-08-24T00:51:35;20.90;99.90
41668;DHT22;27356;50.920;5.350;2022-08-24T00:54:04;20.80;99.90
41668;DHT22;27356;50.920;5.350;2022-08-24T00:56:31;20.80;99.90
41668;DHT22;27356;50.920;5.350;2022-08-24T00:59:10;20.80;99.90
41668;DHT22;27356;50.920;5.350;2022-08-24T01:01:36;20.70;99.90
41668;DHT22;27356;50.920;5.350;2022-08-24T01:04:03;20.60;99.90
41668;DHT22;27356;50.920;5.350;2022-08-24T01:06:30;20.60;99.90
41668;DHT22;27356;50.920;5.350;2022-08-24T01:08:56;20.60;99.90
41668;DHT22;27356;50.920;5.350;2022-08-24T01:11:22;20.50;99.90
41668;DHT22;27356;50.920;5.350;2022-08-24T01:13:49;20.50;99.90
41668;DHT22;27356;50.920;5.350;2022-08-24T01:16:17;20.50;99.90
41668;DHT22;27356;50.920;5.350;2022-08-24T01:19:03;20.50;99.90
41668;DHT22;27356;50.920;5.350;2022-08-24T01:21:51;20.40;99.90
41668;DHT22;27356;50.920;5.350;2022-08-24T01:24:18;20.40;99.90
41668;DHT22;27356;50.920;5.350;2022-08-24T01:26:48;20.30;99.90
41668;DHT22;27356;50.920;5.350;2022-08-24T01:29:25;20.30;99.90
41668;DHT22;27356;50.920;5.350;2022-08-24T01:31:52;20.30;99.90
41668;DHT22;27356;50.920;5.350;2022-08-24T01:34:18;20.30;99.90
41668;DHT22;27356;50.920;5.350;2022-08-24T01:36:45;20.20;99.90
41668;DHT22;27356;50.920;5.350;2022-08-24T01:39:15;20.10;99.90
41668;DHT22;27356;50.920;5.350;2022-08-24T01:41:41;20.10;99.90
41668;DHT22;27356;50.920;5.350;2022-08-24T01:44:07;20.10;99.90
41668;DHT22;27356;50.920;5.350;2022-08-24T01:46:33;20.10;99.90
41668;DHT22;27356;50.920;5.350;2022-08-24T01:48:59;20.10;99.90
41668;DHT22;27356;50.920;5.350;2022-08-24T01:51:27;20.10;99.90
41668;DHT22;27356;50.920;5.350;2022-08-24T01:53:53;20.00;99.90
41668;DHT22;27356;50.920;5.350;2022-08-24T01:56:19;20.00;99.90
41668;DHT22;27356;50.920;5.350;2022-08-24T01:58:45;19.90;99.90
41668;DHT22;27356;50.920;5.350;2022-08-24T02:01:11;19.90;99.90
41668;DHT22;27356;50.920;5.350;2022-08-24T02:03:36;19.90;99.90
41668;DHT22;27356;50.920;5.350;2022-08-24T02:06:02;19.90;99.90
41668;DHT22;27356;50.920;5.350;2022-08-24T02:08:29;19.90;99.90
41668;DHT22;27356;50.920;5.350;2022-08-24T02:10:56;19.90;99.90
41668;DHT22;27356;50.920;5.350;2022-08-24T02:13:21;19.80;99.90
41668;DHT22;27356;50.920;5.350;2022-08-24T02:15:47;19.80;99.90
41668;DHT22;27356;50.920;5.350;2022-08-24T02:18:13;19.80;99.90
41668;DHT22;27356;50.920;5.350;2022-08-24T02:20:38;19.70;99.90
41668;DHT22;27356;50.920;5.350;2022-08-24T02:23:04;19.70;99.90
41668;DHT22;27356;50.920;5.350;2022-08-24T02:25:31;19.70;99.90
41668;DHT22;27356;50.920;5.350;2022-08-24T02:27:57;19.60;99.90
41668;DHT22;27356;50.920;5.350;2022-08-24T02:30:23;19.50;99.90
41668;DHT22;27356;50.920;5.350;2022-08-24T02:32:49;19.60;99.90
41668;DHT22;27356;50.920;5.350;2022-08-24T02:35:15;19.50;99.90
41668;DHT22;27356;50.920;5.350;2022-08-24T02:37:41;19.40;99.90
41668;DHT22;27356;50.920;5.350;2022-08-24T02:40:07;19.40;99.90
41668;DHT22;27356;50.920;5.350;2022-08-24T02:42:34;19.40;99.90
41668;DHT22;27356;50.920;5.350;2022-08-24T02:45:00;19.30;99.90
41668;DHT22;27356;50.920;5.350;2022-08-24T02:47:26;19.20;99.90
41668;DHT22;27356;50.920;5.350;2022-08-24T02:49:52;19.20;99.90
41668;DHT22;27356;50.920;5.350;2022-08-24T02:52:17;19.30;99.90
41668;DHT22;27356;50.920;5.350;2022-08-24T02:54:43;19.30;99.90
41668;DHT22;27356;50.920;5.350;2022-08-24T02:57:08;19.20;99.90
41668;DHT22;27356;50.920;5.350;2022-08-24T02:59:34;19.20;99.90
41668;DHT22;27356;50.920;5.350;2022-08-24T03:01:59;19.10;99.90
41668;DHT22;27356;50.920;5.350;2022-08-24T03:04:25;19.10;99.90
41668;DHT22;27356;50.920;5.350;2022-08-24T03:06:51;19.00;99.90
41668;DHT22;27356;50.920;5.350;2022-08-24T03:09:17;19.00;99.90
41668;DHT22;27356;50.920;5.350;2022-08-24T03:11:45;19.10;99.90
41668;DHT22;27356;50.920;5.350;2022-08-24T03:14:11;19.00;99.90
41668;DHT22;27356;50.920;5.350;2022-08-24T03:16:37;19.00;99.90
41668;DHT22;27356;50.920;5.350;2022-08-24T03:19:02;18.90;99.90
41668;DHT22;27356;50.920;5.350;2022-08-24T03:21:28;18.90;99.90
41668;DHT22;27356;50.920;5.350;2022-08-24T03:23:54;18.80;99.90
41668;DHT22;27356;50.920;5.350;2022-08-24T03:26:20;18.80;99.90
41668;DHT22;27356;50.920;5.350;2022-08-24T03:28:45;18.80;99.90
41668;DHT22;27356;50.920;5.350;2022-08-24T03:31:11;18.70;99.90
41668;DHT22;27356;50.920;5.350;2022-08-24T03:33:37;18.70;99.90
41668;DHT22;27356;50.920;5.350;2022-08-24T03:36:03;18.70;99.90
41668;DHT22;27356;50.920;5.350;2022-08-24T03:38:28;18.70;99.90
41668;DHT22;27356;50.920;5.350;2022-08-24T03:40:54;18.70;99.90
41668;DHT22;27356;50.920;5.350;2022-08-24T03:43:19;18.60;99.90
41668;DHT22;27356;50.920;5.350;2022-08-24T03:46:05;18.60;99.90
41668;DHT22;27356;50.920;5.350;2022-08-24T03:48:31;18.60;99.90
41668;DHT22;27356;50.920;5.350;2022-08-24T03:50:57;18.50;99.90
41668;DHT22;27356;50.920;5.350;2022-08-24T03:53:22;18.50;99.90
41668;DHT22;27356;50.920;5.350;2022-08-24T03:55:48;18.40;99.90
41668;DHT22;27356;50.920;5.350;2022-08-24T03:58:13;18.40;99.90
41668;DHT22;27356;50.920;5.350;2022-08-24T04:00:39;18.40;99.90
41668;DHT22;27356;50.920;5.350;2022-08-24T04:03:08;18.40;99.90
41668;DHT22;27356;50.920;5.350;2022-08-24T04:05:33;18.30;99.90
41668;DHT22;27356;50.920;5.350;2022-08-24T04:07:59;18.20;99.90
41668;DHT22;27356;50.920;5.350;2022-08-24T04:10:24;18.20;99.90
41668;DHT22;27356;50.920;5.350;2022-08-24T04:12:50;18.20;99.90
41668;DHT22;27356;50.920;5.350;2022-08-24T04:15:15;18.20;99.90
41668;DHT22;27356;50.920;5.350;2022-08-24T04:17:41;18.20;99.90
41668;DHT22;27356;50.920;5.350;2022-08-24T04:20:07;18.20;99.90
41668;DHT22;27356;50.920;5.350;2022-08-24T04:22:33;18.20;99.90
41668;DHT22;27356;50.920;5.350;2022-08-24T04:24:58;18.20;99.90
41668;DHT22;27356;50.920;5.350;2022-08-24T04:27:24;18.20;99.90
41668;DHT22;27356;50.920;5.350;2022-08-24T04:29:50;18.20;99.90
41668;DHT22;27356;50.920;5.350;2022-08-24T04:32:16;18.20;99.90
41668;DHT22;27356;50.920;5.350;2022-08-24T04:34:44;18.20;99.90
41668;DHT22;27356;50.920;5.350;2022-08-24T04:37:11;18.20;99.90
41668;DHT22;27356;50.920;5.350;2022-08-24T04:39:37;18.20;99.90
41668;DHT22;27356;50.920;5.350;2022-08-24T04:42:02;18.20;99.90
41668;DHT22;27356;50.920;5.350;2022-08-24T04:44:28;18.20;99.90
41668;DHT22;27356;50.920;5.350;2022-08-24T04:46:54;18.20;99.90
41668;DHT22;27356;50.920;5.350;2022-08-24T04:49:20;18.20;99.90
41668;DHT22;27356;50.920;5.350;2022-08-24T04:51:46;18.20;99.90
41668;DHT22;27356;50.920;5.350;2022-08-24T04:54:12;18.20;99.90
41668;DHT22;27356;50.920;5.350;2022-08-24T04:56:37;18.30;99.90
41668;DHT22;27356;50.920;5.350;2022-08-24T04:59:03;18.30;99.90
41668;DHT22;27356;50.920;5.350;2022-08-24T05:01:29;18.30;99.90
41668;DHT22;27356;50.920;5.350;2022-08-24T05:03:57;18.30;99.90
41668;DHT22;27356;50.920;5.350;2022-08-24T05:06:24;18.30;99.90
41668;DHT22;27356;50.920;5.350;2022-08-24T05:08:50;18.30;99.90
41668;DHT22;27356;50.920;5.350;2022-08-24T05:11:16;18.40;99.90
41668;DHT22;27356;50.920;5.350;2022-08-24T05:13:42;18.50;99.90
41668;DHT22;27356;50.920;5.350;2022-08-24T05:16:08;18.60;99.90
41668;DHT22;27356;50.920;5.350;2022-08-24T05:18:34;18.60;99.90
41668;DHT22;27356;50.920;5.350;2022-08-24T05:21:00;18.70;99.90
41668;DHT22;27356;50.920;5.350;2022-08-24T05:23:25;18.80;99.90
41668;DHT22;27356;50.920;5.350;2022-08-24T05:25:51;18.90;99.90
41668;DHT22;27356;50.920;5.350;2022-08-24T05:28:17;19.30;99.90
41668;DHT22;27356;50.920;5.350;2022-08-24T05:30:42;19.70;99.90
41668;DHT22;27356;50.920;5.350;2022-08-24T05:33:08;20.30;99.90
41668;DHT22;27356;50.920;5.350;2022-08-24T05:35:38;21.00;99.90
41668;DHT22;27356;50.920;5.350;2022-08-24T05:38:04;21.80;99.90
41668;DHT22;27356;50.920;5.350;2022-08-24T05:40:29;22.60;99.90
41668;DHT22;27356;50.920;5.350;2022-08-24T05:42:55;23.40;99.90
41668;DHT22;27356;50.920;5.350;2022-08-24T05:45:20;23.90;99.90
41668;DHT22;27356;50.920;5.350;2022-08-24T05:47:46;24.50;99.90
41668;DHT22;27356;50.920;5.350;2022-08-24T05:50:11;25.00;99.60
41668;DHT22;27356;50.920;5.350;2022-08-24T05:52:37;25.60;98.00
41668;DHT22;27356;50.920;5.350;2022-08-24T05:55:02;26.10;96.90
41668;DHT22;27356;50.920;5.350;2022-08-24T05:57:32;26.60;95.70
41668;DHT22;27356;50.920;5.350;2022-08-24T05:59:58;27.10;94.50
41668;DHT22;27356;50.920;5.350;2022-08-24T06:02:24;27.70;93.60
41668;DHT22;27356;50.920;5.350;2022-08-24T06:04:50;28.10;92.50
41668;DHT22;27356;50.920;5.350;2022-08-24T06:07:15;28.70;91.40
41668;DHT22;27356;50.920;5.350;2022-08-24T06:09:41;29.10;91.00
41668;DHT22;27356;50.920;5.350;2022-08-24T06:12:07;29.20;90.70
41668;DHT22;27356;50.920;5.350;2022-08-24T06:14:33;29.30;90.50
41668;DHT22;27356;50.920;5.350;2022-08-24T06:16:59;29.30;90.00
41668;DHT22;27356;50.920;5.350;2022-08-24T06:19:25;29.20;90.40
41668;DHT22;27356;50.920;5.350;2022-08-24T06:21:52;29.60;89.90
41668;DHT22;27356;50.920;5.350;2022-08-24T06:24:18;29.90;88.50
41668;DHT22;27356;50.920;5.350;2022-08-24T06:26:44;29.90;88.70
41668;DHT22;27356;50.920;5.350;2022-08-24T06:29:28;30.30;87.40
41668;DHT22;27356;50.920;5.350;2022-08-24T06:31:54;30.50;86.80
41668;DHT22;27356;50.920;5.350;2022-08-24T06:34:21;30.60;86.60
41668;DHT22;27356;50.920;5.350;2022-08-24T06:36:46;30.70;86.10
41668;DHT22;27356;50.920;5.350;2022-08-24T06:39:12;30.70;86.60
41668;DHT22;27356;50.920;5.350;2022-08-24T06:41:38;31.20;85.60
41668;DHT22;27356;50.920;5.350;2022-08-24T06:44:04;31.60;84.80
41668;DHT22;27356;50.920;5.350;2022-08-24T06:46:30;31.60;84.20
41668;DHT22;27356;50.920;5.350;2022-08-24T06:48:55;31.00;84.90
41668;DHT22;27356;50.920;5.350;2022-08-24T06:51:21;31.10;86.50
41668;DHT22;27356;50.920;5.350;2022-08-24T06:53:47;31.50;85.10
41668;DHT22;27356;50.920;5.350;2022-08-24T06:56:13;32.20;83.90
41668;DHT22;27356;50.920;5.350;2022-08-24T06:58:39;32.90;82.30
41668;DHT22;27356;50.920;5.350;2022-08-24T07:01:11;32.80;82.00
41668;DHT22;27356;50.920;5.350;2022-08-24T07:03:37;33.00;81.80
41668;DHT22;27356;50.920;5.350;2022-08-24T07:06:03;33.20;81.10
41668;DHT22;27356;50.920;5.350;2022-08-24T07:08:29;33.30;80.80
41668;DHT22;27356;50.920;5.350;2022-08-24T07:10:55;33.70;79.80
41668;DHT22;27356;50.920;5.350;2022-08-24T07:13:20;33.70;79.70
41668;DHT22;27356;50.920;5.350;2022-08-24T07:15:46;34.20;78.70
41668;DHT22;27356;50.920;5.350;2022-08-24T07:18:12;33.80;78.50
41668;DHT22;27356;50.920;5.350;2022-08-24T07:20:38;34.40;77.40
41668;DHT22;27356;50.920;5.350;2022-08-24T07:23:04;34.00;78.70
41668;DHT22;27356;50.920;5.350;2022-08-24T07:25:30;34.00;78.70
41668;DHT22;27356;50.920;5.350;2022-08-24T07:27:56;35.00;77.00
41668;DHT22;27356;50.920;5.350;2022-08-24T07:30:22;35.50;76.40
41668;DHT22;27356;50.920;5.350;2022-08-24T07:32:50;35.70;76.30
41668;DHT22;27356;50.920;5.350;2022-08-24T07:35:16;35.80;74.60
41668;DHT22;27356;50.920;5.350;2022-08-24T07:37:42;36.20;73.30
41668;DHT22;27356;50.920;5.350;2022-08-24T07:40:07;36.30;73.10
41668;DHT22;27356;50.920;5.350;2022-08-24T07:42:33;36.50;72.50
41668;DHT22;27356;50.920;5.350;2022-08-24T07:44:59;37.10;71.30
41668;DHT22;27356;50.920;5.350;2022-08-24T07:47:24;37.10;71.50
41668;DHT22;27356;50.920;5.350;2022-08-24T07:49:50;36.40;72.00
41668;DHT22;27356;50.920;5.350;2022-08-24T07:52:16;37.00;71.50
41668;DHT22;27356;50.920;5.350;2022-08-24T07:54:42;37.00;71.50
41668;DHT22;27356;50.920;5.350;2022-08-24T07:57:07;36.50;72.00
41668;DHT22;27356;50.920;5.350;2022-08-24T07:59:34;37.20;70.20
41668;DHT22;27356;50.920;5.350;2022-08-24T08:01:59;36.80;70.90
41668;DHT22;27356;50.920;5.350;2022-08-24T08:04:25;37.70;69.90
41668;DHT22;27356;50.920;5.350;2022-08-24T08:06:51;37.70;69.20
41668;DHT22;27356;50.920;5.350;2022-08-24T08:09:16;38.00;68.20
41668;DHT22;27356;50.920;5.350;2022-08-24T08:11:42;37.40;69.40
41668;DHT22;27356;50.920;5.350;2022-08-24T08:14:08;37.90;67.90
41668;DHT22;27356;50.920;5.350;2022-08-24T08:16:33;38.50;67.50
41668;DHT22;27356;50.920;5.350;2022-08-24T08:18:59;39.30;66.40
41668;DHT22;27356;50.920;5.350;2022-08-24T08:21:27;39.50;66.30
41668;DHT22;27356;50.920;5.350;2022-08-24T08:24:11;39.20;65.70
41668;DHT22;27356;50.920;5.350;2022-08-24T08:26:40;38.90;65.20
41668;DHT22;27356;50.920;5.350;2022-08-24T08:29:06;37.90;66.80
41668;DHT22;27356;50.920;5.350;2022-08-24T08:31:32;37.60;67.40
41668;DHT22;27356;50.920;5.350;2022-08-24T08:33:58;37.50;67.70
41668;DHT22;27356;50.920;5.350;2022-08-24T08:36:24;37.60;67.60
41668;DHT22;27356;50.920;5.350;2022-08-24T08:38:50;38.40;66.90
41668;DHT22;27356;50.920;5.350;2022-08-24T08:43:45;37.90;66.50
41668;DHT22;27356;50.920;5.350;2022-08-24T08:46:21;38.60;65.70
41668;DHT22;27356;50.920;5.350;2022-08-24T08:59:06;38.40;65.90
41668;DHT22;27356;50.920;5.350;2022-08-24T09:04:20;37.80;66.30
41668;DHT22;27356;50.920;5.350;2022-08-24T09:06:53;37.50;66.20
41668;DHT22;27356;50.920;5.350;2022-08-24T09:22:08;36.80;66.40
41668;DHT22;27356;50.920;5.350;2022-08-24T09:30:13;35.00;68.50
41668;DHT22;27356;50.920;5.350;2022-08-24T09:35:15;36.10;68.30
41668;DHT22;27356;50.920;5.350;2022-08-24T09:37:55;37.00;66.70
41668;DHT22;27356;50.920;5.350;2022-08-24T09:42:54;38.20;64.60
41668;DHT22;27356;50.920;5.350;2022-08-24T09:50:59;36.90;65.30
41668;DHT22;27356;50.920;5.350;2022-08-24T09:56:13;36.50;65.00
41668;DHT22;27356;50.920;5.350;2022-08-24T10:03:52;34.40;67.10
41668;DHT22;27356;50.920;5.350;2022-08-24T10:11:37;34.20;66.30
41668;DHT22;27356;50.920;5.350;2022-08-24T10:14:12;34.00;66.10
41668;DHT22;27356;50.920;5.350;2022-08-24T10:22:09;33.40;68.20
41668;DHT22;27356;50.920;5.350;2022-08-24T10:29:59;34.20;66.90
41668;DHT22;27356;50.920;5.350;2022-08-24T10:32:46;34.10;65.70
41668;DHT22;27356;50.920;5.350;2022-08-24T10:36:02;33.80;65.70
41668;DHT22;27356;50.920;5.350;2022-08-24T10:38:21;33.80;65.20
41668;DHT22;27356;50.920;5.350;2022-08-24T10:43:50;34.10;64.50
41668;DHT22;27356;50.920;5.350;2022-08-24T10:46:35;34.00;64.50
41668;DHT22;27356;50.920;5.350;2022-08-24T10:54:09;33.30;65.20
41668;DHT22;27356;50.920;5.350;2022-08-24T11:01:38;32.90;65.00
41668;DHT22;27356;50.920;5.350;2022-08-24T11:04:13;33.10;64.60
41668;DHT22;27356;50.920;5.350;2022-08-24T11:12:17;32.70;65.60
41668;DHT22;27356;50.920;5.350;2022-08-24T11:14:45;32.40;66.10
41668;DHT22;27356;50.920;5.350;2022-08-24T11:17:16;32.50;66.50
41668;DHT22;27356;50.920;5.350;2022-08-24T11:19:43;32.50;65.60
41668;DHT22;27356;50.920;5.350;2022-08-24T11:24:54;32.90;65.50
41668;DHT22;27356;50.920;5.350;2022-08-24T11:35:01;32.20;65.50
41668;DHT22;27356;50.920;5.350;2022-08-24T11:37:31;32.20;65.90
41668;DHT22;27356;50.920;5.350;2022-08-24T11:39:57;32.30;65.40
41668;DHT22;27356;50.920;5.350;2022-08-24T11:45:13;32.70;64.50
41668;DHT22;27356;50.920;5.350;2022-08-24T11:50:40;32.50;65.10
41668;DHT22;27356;50.920;5.350;2022-08-24T11:54:09;32.40;65.10
41668;DHT22;27356;50.920;5.350;2022-08-24T11:56:06;32.50;65.70
41668;DHT22;27356;50.920;5.350;2022-08-24T12:04:22;32.70;63.70
41668;DHT22;27356;50.920;5.350;2022-08-24T12:09:41;32.20;65.60
41668;DHT22;27356;50.920;5.350;2022-08-24T12:12:24;32.30;65.70
41668;DHT22;27356;50.920;5.350;2022-08-24T12:15:11;32.30;65.00
41668;DHT22;27356;50.920;5.350;2022-08-24T12:20:09;32.50;65.00
41668;DHT22;27356;50.920;5.350;2022-08-24T12:22:35;32.50;64.80
41668;DHT22;27356;50.920;5.350;2022-08-24T12:25:03;32.40;65.30
41668;DHT22;27356;50.920;5.350;2022-08-24T12:27:49;32.40;64.90
41668;DHT22;27356;50.920;5.350;2022-08-24T12:30:16;32.60;65.20
41668;DHT22;27356;50.920;5.350;2022-08-24T12:32:46;32.40;65.50
41668;DHT22;27356;50.920;5.350;2022-08-24T12:35:33;32.30;66.70
41668;DHT22;27356;50.920;5.350;2022-08-24T12:38:02;32.60;65.90
41668;DHT22;27356;50.920;5.350;2022-08-24T12:40:37;32.60;65.10
41668;DHT22;27356;50.920;5.350;2022-08-24T12:43:08;32.40;65.40
41668;DHT22;27356;50.920;5.350;2022-08-24T12:45:54;32.70;65.30
41668;DHT22;27356;50.920;5.350;2022-08-24T13:01:58;32.30;66.50
41668;DHT22;27356;50.920;5.350;2022-08-24T13:04:30;32.20;65.80
41668;DHT22;27356;50.920;5.350;2022-08-24T13:07:01;32.20;66.20
41668;DHT22;27356;50.920;5.350;2022-08-24T13:09:40;32.40;66.40
41668;DHT22;27356;50.920;5.350;2022-08-24T13:14:51;32.60;65.30
41668;DHT22;27356;50.920;5.350;2022-08-24T13:17:17;32.40;65.70
41668;DHT22;27356;50.920;5.350;2022-08-24T13:19:44;32.30;66.10
41668;DHT22;27356;50.920;5.350;2022-08-24T13:29:45;32.30;65.80
41668;DHT22;27356;50.920;5.350;2022-08-24T13:32:21;32.30;65.80
41668;DHT22;27356;50.920;5.350;2022-08-24T13:34:51;32.20;65.70
41668;DHT22;27356;50.920;5.350;2022-08-24T13:37:26;32.10;66.30
41668;DHT22;27356;50.920;5.350;2022-08-24T13:40:04;32.20;66.30
41668;DHT22;27356;50.920;5.350;2022-08-24T13:47:44;31.90;66.60
41668;DHT22;27356;50.920;5.350;2022-08-24T13:58:18;32.10;66.00
41668;DHT22;27356;50.920;5.350;2022-08-24T14:10:54;32.30;65.20
41668;DHT22;27356;50.920;5.350;2022-08-24T14:19:13;32.40;65.10
41668;DHT22;27356;50.920;5.350;2022-08-24T14:24:38;32.40;64.80
41668;DHT22;27356;50.920;5.350;2022-08-24T14:27:06;32.40;64.80
41668;DHT22;27356;50.920;5.350;2022-08-24T14:29:34;32.50;64.70
41668;DHT22;27356;50.920;5.350;2022-08-24T14:39:31;32.70;64.50
41668;DHT22;27356;50.920;5.350;2022-08-24T14:42:23;32.70;64.70
41668;DHT22;27356;50.920;5.350;2022-08-24T14:44:50;32.70;64.60
41668;DHT22;27356;50.920;5.350;2022-08-24T14:55:06;32.60;64.30
41668;DHT22;27356;50.920;5.350;2022-08-24T15:00:18;32.50;64.20
41668;DHT22;27356;50.920;5.350;2022-08-24T15:07:59;32.70;64.10
41668;DHT22;27356;50.920;5.350;2022-08-24T15:10:44;32.50;64.20
41668;DHT22;27356;50.920;5.350;2022-08-24T15:16:02;32.70;63.80
41668;DHT22;27356;50.920;5.350;2022-08-24T15:26:17;32.30;63.80
41668;DHT22;27356;50.920;5.350;2022-08-24T15:28:49;32.20;63.80
41668;DHT22;27356;50.920;5.350;2022-08-24T15:31:18;32.30;64.10
41668;DHT22;27356;50.920;5.350;2022-08-24T15:33:55;32.30;64.50
41668;DHT22;27356;50.920;5.350;2022-08-24T15:36:22;32.40;63.90
41668;DHT22;27356;50.920;5.350;2022-08-24T15:38:47;32.50;63.80
41668;DHT22;27356;50.920;5.350;2022-08-24T15:41:15;32.50;63.60
41668;DHT22;27356;50.920;5.350;2022-08-24T15:43:46;32.50;63.40
41668;DHT22;27356;50.920;5.350;2022-08-24T15:46:12;32.60;63.10
41668;DHT22;27356;50.920;5.350;2022-08-24T15:48:43;32.70;62.90
41668;DHT22;27356;50.920;5.350;2022-08-24T15:51:23;32.70;62.80
41668;DHT22;27356;50.920;5.350;2022-08-24T15:53:53;32.70;63.50
41668;DHT22;27356;50.920;5.350;2022-08-24T15:58:44;32.70;63.20
41668;DHT22;27356;50.920;5.350;2022-08-24T16:11:28;32.80;63.10
41668;DHT22;27356;50.920;5.350;2022-08-24T16:13:54;32.80;63.70
41668;DHT22;27356;50.920;5.350;2022-08-24T16:16:29;32.60;63.60
41668;DHT22;27356;50.920;5.350;2022-08-24T16:18:58;32.50;63.60
41668;DHT22;27356;50.920;5.350;2022-08-24T16:21:37;32.40;63.70
41668;DHT22;27356;50.920;5.350;2022-08-24T16:24:05;32.40;63.60
41668;DHT22;27356;50.920;5.350;2022-08-24T16:26:50;32.20;63.60
41668;DHT22;27356;50.920;5.350;2022-08-24T16:34:32;32.30;64.30
41668;DHT22;27356;50.920;5.350;2022-08-24T16:36:58;32.50;63.20
41668;DHT22;27356;50.920;5.350;2022-08-24T16:39:24;32.50;63.20
41668;DHT22;27356;50.920;5.350;2022-08-24T16:41:51;32.50;63.30
41668;DHT22;27356;50.920;5.350;2022-08-24T16:44:18;32.40;64.00
41668;DHT22;27356;50.920;5.350;2022-08-24T16:46:44;32.20;64.40
41668;DHT22;27356;50.920;5.350;2022-08-24T16:49:09;32.00;64.90
41668;DHT22;27356;50.920;5.350;2022-08-24T16:51:35;32.00;65.10
41668;DHT22;27356;50.920;5.350;2022-08-24T16:54:00;31.90;65.20
41668;DHT22;27356;50.920;5.350;2022-08-24T16:56:26;32.00;65.10
41668;DHT22;27356;50.920;5.350;2022-08-24T16:58:52;31.90;64.90
41668;DHT22;27356;50.920;5.350;2022-08-24T17:01:17;31.80;65.10
41668;DHT22;27356;50.920;5.350;2022-08-24T17:03:44;31.70;65.50
41668;DHT22;27356;50.920;5.350;2022-08-24T17:06:10;31.60;65.50
41668;DHT22;27356;50.920;5.350;2022-08-24T17:08:37;31.70;65.50
41668;DHT22;27356;50.920;5.350;2022-08-24T17:11:03;31.70;65.50
41668;DHT22;27356;50.920;5.350;2022-08-24T17:13:29;31.70;65.70
41668;DHT22;27356;50.920;5.350;2022-08-24T17:15:55;31.70;65.30
41668;DHT22;27356;50.920;5.350;2022-08-24T17:18:21;31.70;65.80
41668;DHT22;27356;50.920;5.350;2022-08-24T17:20:46;31.60;66.20
41668;DHT22;27356;50.920;5.350;2022-08-24T17:23:12;31.50;66.30
41668;DHT22;27356;50.920;5.350;2022-08-24T17:25:38;31.40;66.50
41668;DHT22;27356;50.920;5.350;2022-08-24T17:28:07;31.40;66.10
41668;DHT22;27356;50.920;5.350;2022-08-24T17:30:34;31.40;66.60
41668;DHT22;27356;50.920;5.350;2022-08-24T17:32:59;31.20;66.30
41668;DHT22;27356;50.920;5.350;2022-08-24T17:35:25;31.20;66.50
41668;DHT22;27356;50.920;5.350;2022-08-24T17:37:51;31.20;66.60
41668;DHT22;27356;50.920;5.350;2022-08-24T17:40:18;31.40;66.00
41668;DHT22;27356;50.920;5.350;2022-08-24T17:42:44;31.40;66.10
41668;DHT22;27356;50.920;5.350;2022-08-24T17:45:10;31.40;66.10
41668;DHT22;27356;50.920;5.350;2022-08-24T17:47:37;31.40;66.00
41668;DHT22;27356;50.920;5.350;2022-08-24T17:50:03;31.50;66.60
41668;DHT22;27356;50.920;5.350;2022-08-24T17:52:29;31.50;66.40
41668;DHT22;27356;50.920;5.350;2022-08-24T17:54:55;31.40;67.00
41668;DHT22;27356;50.920;5.350;2022-08-24T17:57:21;31.30;66.70
41668;DHT22;27356;50.920;5.350;2022-08-24T17:59:48;31.30;66.70
41668;DHT22;27356;50.920;5.350;2022-08-24T18:02:14;31.30;66.50
41668;DHT22;27356;50.920;5.350;2022-08-24T18:04:40;31.30;66.30
41668;DHT22;27356;50.920;5.350;2022-08-24T18:07:08;31.10;66.90
41668;DHT22;27356;50.920;5.350;2022-08-24T18:09:43;30.90;67.40
41668;DHT22;27356;50.920;5.350;2022-08-24T18:12:12;30.70;67.80
41668;DHT22;27356;50.920;5.350;2022-08-24T18:14:37;30.60;68.20
41668;DHT22;27356;50.920;5.350;2022-08-24T18:17:04;30.40;68.80
41668;DHT22;27356;50.920;5.350;2022-08-24T18:19:31;30.40;69.00
41668;DHT22;27356;50.920;5.350;2022-08-24T18:21:57;30.40;68.70
41668;DHT22;27356;50.920;5.350;2022-08-24T18:24:23;30.50;68.60
41668;DHT22;27356;50.920;5.350;2022-08-24T18:26:50;30.40;68.90
41668;DHT22;27356;50.920;5.350;2022-08-24T18:29:17;30.20;69.30
41668;DHT22;27356;50.920;5.350;2022-08-24T18:31:43;30.10;69.40
41668;DHT22;27356;50.920;5.350;2022-08-24T18:34:09;30.00;69.50
41668;DHT22;27356;50.920;5.350;2022-08-24T18:36:35;30.00;69.60
41668;DHT22;27356;50.920;5.350;2022-08-24T18:39:01;29.90;69.80
41668;DHT22;27356;50.920;5.350;2022-08-24T18:41:28;29.80;70.20
41668;DHT22;27356;50.920;5.350;2022-08-24T18:43:57;29.70;70.40
41668;DHT22;27356;50.920;5.350;2022-08-24T18:46:22;29.70;70.50
41668;DHT22;27356;50.920;5.350;2022-08-24T18:48:49;29.50;70.80
41668;DHT22;27356;50.920;5.350;2022-08-24T18:51:15;29.50;70.80
41668;DHT22;27356;50.920;5.350;2022-08-24T18:53:43;29.50;71.00
41668;DHT22;27356;50.920;5.350;2022-08-24T18:56:08;29.40;71.00
41668;DHT22;27356;50.920;5.350;2022-08-24T18:58:34;29.40;71.30
41668;DHT22;27356;50.920;5.350;2022-08-24T19:01:01;29.30;71.70
41668;DHT22;27356;50.920;5.350;2022-08-24T19:03:27;29.30;71.50
41668;DHT22;27356;50.920;5.350;2022-08-24T19:05:52;29.30;71.80
41668;DHT22;27356;50.920;5.350;2022-08-24T19:08:18;29.00;72.30
41668;DHT22;27356;50.920;5.350;2022-08-24T19:10:43;28.80;72.60
41668;DHT22;27356;50.920;5.350;2022-08-24T19:13:09;28.70;73.20
41668;DHT22;27356;50.920;5.350;2022-08-24T19:15:43;28.60;73.70
41668;DHT22;27356;50.920;5.350;2022-08-24T19:18:12;28.60;74.00